Time;durP1;ratioP1;P1;durP2;ratioP2;P2;SDS_P1;SDS_P2;PMS_P1;PMS_P2;Temp;Humidity;BMP_temperature;BMP_pressure;BME280_temperature;BME280_humidity;BME280_pressure;Samples;Min_cycle;Max_cycle;Signal;HPM_P1;HPM_P2
2023/09/23 00:05:16;;;;;;;5.97;5.30;;;;;;;15.13;97.08;100509.34;10484064;28;20050;-68
2023/09/23 00:10:38;;;;;;;7.00;5.20;;;;;;;15.10;95.13;100515.59;10472680;28;20059;-68
2023/09/23 00:16:03;;;;;;;9.18;5.38;;;;;;;15.06;96.99;100524.47;10486885;28;20048;-68
2023/09/23 00:21:25;;;;;;;7.32;5.30;;;;;;;15.07;97.04;100531.38;10478513;28;20053;-69
2023/09/23 00:26:48;;;;;;;7.10;5.45;;;;;;;15.03;97.02;100529.84;10479461;28;20044;-69
2023/09/23 00:32:12;;;;;;;7.45;5.20;;;;;;;15.01;95.82;100542.13;10481390;28;20060;-69
2023/09/23 00:37:34;;;;;;;6.13;5.53;;;;;;;15.02;96.48;100551.63;10471705;28;20045;-69
2023/09/23 00:42:56;;;;;;;8.65;5.07;;;;;;;15.03;95.85;100536.84;10479990;28;20497;-69
2023/09/23 00:48:18;;;;;;;7.82;5.70;;;;;;;14.96;96.49;100544.13;10462655;28;20508;-69
2023/09/23 00:53:40;;;;;;;7.28;5.60;;;;;;;14.97;96.40;100553.63;10479243;28;20369;-69
2023/09/23 00:59:06;;;;;;;6.72;5.68;;;;;;;14.96;95.59;100559.75;10474696;28;20062;-69
2023/09/23 01:04:29;;;;;;;6.20;5.43;;;;;;;14.90;96.77;100569.66;10479152;28;20062;-69
2023/09/23 01:09:51;;;;;;;10.38;5.88;;;;;;;14.88;97.14;100564.53;10468854;28;20040;-69
2023/09/23 01:15:12;;;;;;;10.65;6.03;;;;;;;14.92;97.49;100571.25;10480545;28;20048;-69
2023/09/23 01:20:37;;;;;;;7.80;6.45;;;;;;;14.91;97.29;100576.53;10461068;28;20645;-69
2023/09/23 01:25:59;;;;;;;8.90;6.20;;;;;;;14.87;98.11;100575.03;10471487;28;20096;-68
2023/09/23 01:31:22;;;;;;;6.55;5.90;;;;;;;14.89;98.07;100575.78;10482935;28;20048;-69
2023/09/23 01:36:44;;;;;;;7.28;5.75;;;;;;;14.89;98.19;100588.81;10475469;28;20059;-69
2023/09/23 01:42:07;;;;;;;7.45;6.10;;;;;;;14.88;98.82;100584.53;10480042;28;20052;-69
2023/09/23 01:47:29;;;;;;;9.73;6.03;;;;;;;14.88;99.18;100580.19;10472064;28;20512;-69
2023/09/23 01:52:51;;;;;;;9.25;6.50;;;;;;;14.81;98.56;100585.78;10476449;28;20060;-69
2023/09/23 01:58:14;;;;;;;8.02;6.07;;;;;;;14.81;98.61;100586.63;10482502;28;20661;-69
2023/09/23 02:03:35;;;;;;;8.27;5.85;;;;;;;14.77;98.74;100597.25;10477693;28;20063;-69
2023/09/23 02:08:57;;;;;;;9.00;6.20;;;;;;;14.72;98.20;100602.69;10477813;28;20055;-69
2023/09/23 02:14:19;;;;;;;6.72;5.57;;;;;;;14.69;98.53;100604.63;10482783;28;20044;-69
2023/09/23 02:19:41;;;;;;;7.20;5.97;;;;;;;14.67;97.21;100604.69;10476739;28;20045;-70
2023/09/23 02:25:07;;;;;;;6.45;5.50;;;;;;;14.65;96.31;100616.94;10491936;28;20048;-68
2023/09/23 02:30:30;;;;;;;10.27;5.72;;;;;;;14.63;96.80;100623.19;10474070;28;20196;-69
2023/09/23 02:35:52;;;;;;;8.93;6.10;;;;;;;14.57;97.52;100632.13;10477270;28;20054;-69
2023/09/23 02:41:14;;;;;;;9.02;6.45;;;;;;;14.52;97.87;100641.91;10477114;28;20040;-69
2023/09/23 02:46:37;;;;;;;8.30;6.25;;;;;;;14.52;98.02;100652.31;10478806;28;20045;-69
2023/09/23 02:51:58;;;;;;;8.38;6.78;;;;;;;14.50;98.40;100658.53;10480792;28;20098;-69
2023/09/23 02:57:20;;;;;;;8.70;6.72;;;;;;;14.45;98.35;100658.75;10478101;28;20062;-69
2023/09/23 03:02:53;;;;;;;10.38;7.25;;;;;;;14.42;98.63;100661.53;10483949;28;20072;-69
2023/09/23 03:08:15;;;;;;;7.97;6.70;;;;;;;14.39;99.88;100677.31;10493748;28;20063;-68
2023/09/23 03:13:36;;;;;;;13.57;7.55;;;;;;;14.42;99.96;100687.56;10482487;28;20053;-68
2023/09/23 03:19:10;;;;;;;9.38;7.00;;;;;;;14.39;99.75;100692.91;10481830;28;20489;-68
2023/09/23 03:24:32;;;;;;;15.15;6.68;;;;;;;14.36;99.15;100700.84;10483735;28;20048;-68
2023/09/23 03:29:55;;;;;;;7.45;6.15;;;;;;;14.35;98.07;100709.59;10484195;28;20040;-68
2023/09/23 03:35:17;;;;;;;6.72;5.50;;;;;;;14.31;96.97;100717.59;10493968;28;20040;-68
2023/09/23 03:40:39;;;;;;;5.18;4.30;;;;;;;14.27;96.78;100714.31;10475405;28;20056;-68
2023/09/23 03:46:01;;;;;;;5.20;4.13;;;;;;;14.18;96.35;100722.50;10490452;28;20048;-68
2023/09/23 03:51:24;;;;;;;7.43;3.80;;;;;;;14.13;95.53;100727.09;10478129;28;20823;-68
2023/09/23 03:56:45;;;;;;;4.18;3.05;;;;;;;14.03;94.71;100747.47;10484567;28;20050;-68
2023/09/23 04:02:07;;;;;;;3.75;3.00;;;;;;;13.96;95.64;100740.88;10477208;28;20044;-68
2023/09/23 04:07:29;;;;;;;4.78;3.15;;;;;;;13.96;96.63;100740.03;10475722;28;20095;-68
2023/09/23 04:12:51;;;;;;;6.55;3.17;;;;;;;13.88;94.73;100753.38;10481178;28;20052;-68
2023/09/23 04:18:13;;;;;;;3.90;3.17;;;;;;;13.86;96.15;100762.19;10483144;28;20129;-68
2023/09/23 04:23:35;;;;;;;3.50;3.00;;;;;;;13.82;95.46;100763.22;10476250;28;20044;-68
2023/09/23 04:28:58;;;;;;;6.00;2.92;;;;;;;13.82;95.47;100758.88;10484985;28;20044;-68
2023/09/23 04:34:19;;;;;;;4.47;3.10;;;;;;;13.87;95.88;100772.50;10475693;28;20059;-68
2023/09/23 04:39:41;;;;;;;6.47;2.83;;;;;;;13.88;96.11;100783.75;10483014;28;20064;-68
2023/09/23 04:45:03;;;;;;;3.08;2.78;;;;;;;13.88;95.90;100794.16;10482566;28;20471;-68
2023/09/23 04:50:27;;;;;;;3.35;2.72;;;;;;;13.88;97.21;100794.16;10479579;28;20609;-68
2023/09/23 04:55:49;;;;;;;3.55;2.92;;;;;;;13.94;98.62;100793.88;10476962;28;20048;-69
2023/09/23 05:01:12;;;;;;;3.60;2.88;;;;;;;13.93;97.11;100798.25;10473534;28;20048;-69
2023/09/23 05:06:35;;;;;;;5.65;3.22;;;;;;;13.93;97.62;100803.47;10472133;28;20051;-69
2023/09/23 05:11:58;;;;;;;3.45;3.08;;;;;;;13.88;97.52;100801.97;10474422;28;20064;-69
2023/09/23 05:17:21;;;;;;;3.70;3.30;;;;;;;13.85;96.28;100825.50;10469451;28;20513;-68
2023/09/23 05:22:43;;;;;;;8.30;3.25;;;;;;;13.89;97.16;100825.31;10484870;28;20055;-68
2023/09/23 05:28:06;;;;;;;9.23;3.13;;;;;;;13.93;97.45;100836.44;10481934;28;20032;-68
2023/09/23 05:33:31;;;;;;;4.15;3.55;;;;;;;13.92;96.79;100855.53;10481010;28;20048;-68
2023/09/23 05:38:52;;;;;;;5.82;3.53;;;;;;;13.89;97.33;100858.28;10478593;28;20519;-69
2023/09/23 05:44:16;;;;;;;5.05;3.75;;;;;;;13.87;95.73;100871.34;10478614;28;20129;-68
2023/09/23 05:49:38;;;;;;;4.90;3.63;;;;;;;13.86;95.76;100874.03;10479905;28;20044;-68
2023/09/23 05:55:00;;;;;;;5.60;4.07;;;;;;;13.75;95.48;100890.06;10486247;28;20052;-67
2023/09/23 06:00:22;;;;;;;5.50;4.78;;;;;;;13.60;95.18;100889.88;10463705;28;20051;-68
2023/09/23 06:05:44;;;;;;;5.55;4.85;;;;;;;13.51;96.05;100905.84;10467908;28;20041;-69
2023/09/23 06:11:07;;;;;;;6.47;4.97;;;;;;;13.48;96.76;100921.59;10485180;28;20040;-68
2023/09/23 06:16:29;;;;;;;8.38;5.38;;;;;;;13.42;96.50;100933.09;10483152;28;20080;-67
2023/09/23 06:21:51;;;;;;;7.78;5.88;;;;;;;13.41;95.81;100938.31;10472143;28;20464;-67
2023/09/23 06:27:16;;;;;;;6.47;5.80;;;;;;;13.47;97.57;100948.47;10483512;28;20047;-67
2023/09/23 06:32:38;;;;;;;7.88;6.50;;;;;;;13.50;95.48;100969.16;10476012;28;20048;-67
2023/09/23 06:38:00;;;;;;;11.05;7.70;;;;;;;13.47;95.68;100966.69;10471126;28;20048;-68
2023/09/23 06:43:21;;;;;;;12.52;7.68;;;;;;;13.48;95.30;100973.59;10474692;28;20138;-68
2023/09/23 06:48:43;;;;;;;10.27;8.10;;;;;;;13.49;95.27;100988.25;10488058;28;20060;-68
2023/09/23 06:54:05;;;;;;;13.00;8.05;;;;;;;13.56;96.15;100994.91;10483465;28;20392;-67
2023/09/23 06:59:26;;;;;;;10.35;8.18;;;;;;;13.60;95.46;101004.28;10481138;28;20600;-68
2023/09/23 07:04:48;;;;;;;11.85;9.50;;;;;;;13.63;94.93;101006.75;10478528;28;20060;-68
2023/09/23 07:10:10;;;;;;;12.25;9.63;;;;;;;13.66;95.52;101006.66;10485797;28;20120;-68
2023/09/23 07:15:37;;;;;;;14.52;10.07;;;;;;;13.68;94.28;101020.44;10482516;28;20149;-68
2023/09/23 07:20:58;;;;;;;15.70;10.85;;;;;;;13.73;94.06;101028.91;10483642;28;20167;-67
2023/09/23 07:26:21;;;;;;;20.80;11.88;;;;;;;13.77;94.33;101030.47;10479591;28;20056;-66
2023/09/23 07:31:43;;;;;;;18.80;12.93;;;;;;;13.87;93.07;101050.00;10485404;28;20070;-67
2023/09/23 07:37:06;;;;;;;15.98;12.77;;;;;;;13.95;93.94;101055.75;10480624;28;20575;-67
2023/09/23 07:42:29;;;;;;;19.27;15.63;;;;;;;14.01;93.83;101065.91;10479636;28;20056;-67
2023/09/23 07:47:51;;;;;;;19.70;16.50;;;;;;;14.03;92.47;101074.50;10474468;28;20512;-67
2023/09/23 07:53:12;;;;;;;22.35;17.70;;;;;;;14.09;92.21;101082.91;10483494;28;20048;-68
2023/09/23 07:58:34;;;;;;;20.40;17.83;;;;;;;14.13;91.72;101091.44;10476127;28;20051;-68
2023/09/23 08:03:55;;;;;;;23.90;18.10;;;;;;;14.15;91.79;101090.44;10475021;28;20047;-67
2023/09/23 08:09:17;;;;;;;22.23;16.77;;;;;;;14.22;91.64;101108.44;10462012;28;20039;-68
2023/09/23 08:14:39;;;;;;;19.25;15.30;;;;;;;14.25;90.76;101113.53;10481632;28;20060;-68
2023/09/23 08:20:11;;;;;;;18.75;14.68;;;;;;;14.27;90.17;101115.19;10474885;28;20056;-68
2023/09/23 08:25:36;;;;;;;16.65;13.82;;;;;;;14.34;90.84;101121.84;10469765;28;20147;-68
2023/09/23 08:30:57;;;;;;;16.40;13.90;;;;;;;14.43;90.74;101129.25;10489009;28;20566;-68
2023/09/23 08:36:19;;;;;;;19.27;14.00;;;;;;;14.48;90.38;101144.72;10469394;28;20436;-68
2023/09/23 08:41:41;;;;;;;17.42;13.25;;;;;;;14.59;90.21;101134.69;10485132;28;20040;-68
2023/09/23 08:47:04;;;;;;;17.15;13.32;;;;;;;14.65;90.27;101134.47;10479238;28;20043;-68
2023/09/23 08:52:26;;;;;;;19.02;12.75;;;;;;;14.77;89.67;101136.53;10465746;28;20044;-69
2023/09/23 08:57:48;;;;;;;15.88;12.18;;;;;;;14.89;89.42;101147.28;10470323;28;20549;-68
2023/09/23 09:03:10;;;;;;;18.70;12.35;;;;;;;14.92;89.32;101149.75;10478162;28;20071;-68
2023/09/23 09:08:31;;;;;;;15.32;12.93;;;;;;;14.94;88.85;101155.75;10487717;28;20052;-68
2023/09/23 09:13:53;;;;;;;16.50;12.13;;;;;;;14.99;89.65;101159.03;10479268;28;20072;-68
2023/09/23 09:19:15;;;;;;;16.17;12.07;;;;;;;15.05;88.93;101173.56;10472770;28;20475;-69
2023/09/23 09:24:37;;;;;;;14.77;11.70;;;;;;;15.01;88.72;101165.03;10458296;28;20052;-69
2023/09/23 09:29:58;;;;;;;16.45;12.02;;;;;;;15.08;89.41;101184.69;10465831;28;20037;-70
2023/09/23 09:35:34;;;;;;;16.25;12.63;;;;;;;15.22;90.17;101183.25;10476992;28;20427;-69
2023/09/23 09:41:04;;;;;;;17.90;11.50;;;;;;;15.36;89.44;101189.56;10465026;28;20127;-69
2023/09/23 09:46:29;;;;;;;14.52;10.93;;;;;;;15.46;88.47;101197.84;10476596;28;20144;-69
2023/09/23 09:51:52;;;;;;;14.70;10.67;;;;;;;15.47;87.39;101196.94;10458187;28;20123;-69
2023/09/23 09:57:14;;;;;;;17.95;9.85;;;;;;;15.56;87.57;101197.38;10481259;28;20052;-69
2023/09/23 10:02:37;;;;;;;12.27;9.52;;;;;;;15.68;88.24;101206.41;10471344;28;20396;-68
2023/09/23 10:07:59;;;;;;;12.65;10.02;;;;;;;15.79;87.43;101212.84;10473614;28;20158;-68
2023/09/23 10:13:24;;;;;;;15.93;10.63;;;;;;;15.87;86.69;101210.75;10474791;28;20060;-68
2023/09/23 10:18:56;;;;;;;15.13;10.67;;;;;;;15.93;87.22;101222.66;10472141;28;20082;-68
2023/09/23 10:24:20;;;;;;;36.08;12.45;;;;;;;15.92;86.46;101234.00;10486656;28;20068;-67
2023/09/23 10:29:49;;;;;;;14.82;11.57;;;;;;;15.87;86.90;101238.59;10479047;28;20051;-68
2023/09/23 10:35:11;;;;;;;15.07;11.05;;;;;;;15.94;86.52;101240.00;10476797;28;20099;-68
2023/09/23 10:40:33;;;;;;;10.95;9.45;;;;;;;15.96;85.63;101254.69;10476661;28;20109;-68
2023/09/23 10:45:57;;;;;;;11.18;9.52;;;;;;;15.99;85.35;101258.91;10460891;28;20044;-67
2023/09/23 10:51:19;;;;;;;13.57;9.52;;;;;;;15.92;85.76;101268.81;10477052;28;20213;-68
2023/09/23 10:56:41;;;;;;;10.32;8.23;;;;;;;16.01;85.81;101267.53;10470756;28;20052;-68
2023/09/23 11:02:04;;;;;;;10.48;7.88;;;;;;;16.10;85.92;101269.72;10482754;28;20242;-69
2023/09/23 11:07:26;;;;;;;12.65;7.40;;;;;;;16.19;85.29;101271.91;10460009;28;20044;-68
2023/09/23 11:12:49;;;;;;;19.25;7.55;;;;;;;16.26;84.75;101283.75;10473097;28;20065;-68
2023/09/23 11:18:15;;;;;;;10.93;7.30;;;;;;;16.28;84.64;101287.16;10476403;28;20052;-67
2023/09/23 11:23:38;;;;;;;8.13;6.95;;;;;;;16.39;84.71;101295.34;10473342;28;20051;-68
2023/09/23 11:29:00;;;;;;;9.63;6.10;;;;;;;16.48;85.27;101288.88;10474127;28;20047;-66
2023/09/23 11:34:22;;;;;;;8.43;5.88;;;;;;;16.62;83.48;101292.56;10483930;28;20147;-66
2023/09/23 11:39:43;;;;;;;11.15;5.35;;;;;;;16.77;84.07;101301.44;10474513;28;20491;-66
2023/09/23 11:45:05;;;;;;;10.15;5.30;;;;;;;16.92;83.18;101301.50;10480497;28;20052;-67
2023/09/23 11:50:27;;;;;;;5.07;4.40;;;;;;;17.11;84.15;101296.25;10481183;28;20053;-67
2023/09/23 11:55:49;;;;;;;6.82;4.30;;;;;;;17.28;82.55;101303.25;10478523;28;20064;-67
2023/09/23 12:01:10;;;;;;;10.07;4.38;;;;;;;17.37;80.67;101295.78;10470734;28;20120;-67
2023/09/23 12:06:36;;;;;;;7.18;4.28;;;;;;;17.28;81.40;101298.00;10484364;28;20056;-68
2023/09/23 12:11:58;;;;;;;6.25;4.18;;;;;;;17.14;82.02;101297.88;10486496;28;20060;-68
2023/09/23 12:17:19;;;;;;;7.30;3.95;;;;;;;17.07;82.52;101300.78;10476399;28;20055;-68
2023/09/23 12:22:41;;;;;;;8.13;3.45;;;;;;;17.10;82.90;101300.63;10465162;28;20052;-68
2023/09/23 12:28:04;;;;;;;7.47;2.90;;;;;;;17.32;79.03;101310.03;10494711;28;20504;-68
2023/09/23 12:33:25;;;;;;;3.95;2.40;;;;;;;17.45;80.50;101298.03;10479940;28;20063;-69
2023/09/23 12:38:47;;;;;;;7.72;2.55;;;;;;;17.81;77.53;101304.00;10479791;28;20500;-68
2023/09/23 12:44:09;;;;;;;4.57;2.40;;;;;;;17.82;76.11;101314.41;10480567;28;20135;-68
2023/09/23 12:49:31;;;;;;;7.07;2.42;;;;;;;17.85;77.36;101316.03;10496862;28;20105;-69
2023/09/23 12:54:53;;;;;;;4.38;2.50;;;;;;;17.97;76.41;101333.69;10478624;28;20056;-69
2023/09/23 13:00:14;;;;;;;4.30;2.38;;;;;;;17.86;77.02;101338.66;10480589;28;20028;-70
2023/09/23 13:05:36;;;;;;;5.18;2.38;;;;;;;17.79;77.76;101335.50;10468974;28;20122;-70
2023/09/23 13:11:07;;;;;;;4.28;2.15;;;;;;;17.86;76.65;101347.38;10477836;28;20048;-70
2023/09/23 13:16:34;;;;;;;9.23;2.50;;;;;;;17.97;76.22;101362.50;10490302;28;20143;-70
2023/09/23 13:21:56;;;;;;;5.20;2.30;;;;;;;18.12;77.97;101355.63;10477104;28;20040;-70
2023/09/23 13:27:18;;;;;;;3.13;2.00;;;;;;;18.10;76.77;101368.81;10479300;28;20048;-70
2023/09/23 13:32:39;;;;;;;4.03;1.92;;;;;;;18.02;78.54;101381.44;10474670;28;20488;-70
2023/09/23 13:38:01;;;;;;;5.93;2.30;;;;;;;17.91;76.84;101386.38;10478973;28;20680;-70
2023/09/23 13:43:24;;;;;;;4.97;2.13;;;;;;;17.79;78.71;101379.16;10473050;28;20053;-70
2023/09/23 13:48:45;;;;;;;4.57;2.00;;;;;;;17.71;79.29;101394.41;10472848;28;20409;-70
2023/09/23 13:54:07;;;;;;;6.82;1.90;;;;;;;17.66;79.51;101409.50;10468597;28;20139;-70
2023/09/23 13:59:29;;;;;;;4.63;2.20;;;;;;;17.68;77.58;101423.38;10473891;28;20040;-70
2023/09/23 14:04:50;;;;;;;3.97;1.63;;;;;;;17.58;78.40;101425.59;10478372;28;20044;-70
2023/09/23 14:10:12;;;;;;;5.43;2.08;;;;;;;17.51;78.90;101437.28;10472971;28;20037;-70
2023/09/23 14:15:43;;;;;;;6.65;2.03;;;;;;;17.38;80.28;101446.63;10469527;28;20154;-70
2023/09/23 14:21:04;;;;;;;5.80;2.40;;;;;;;17.23;81.09;101456.97;10475089;28;20341;-70
2023/09/23 14:26:26;;;;;;;4.30;2.22;;;;;;;17.13;81.59;101458.31;10473257;28;20436;-68
2023/09/23 14:31:47;;;;;;;3.83;2.50;;;;;;;17.06;82.08;101465.63;10470597;28;20041;-71
2023/09/23 14:37:09;;;;;;;7.00;3.10;;;;;;;16.90;82.89;101465.47;10473806;28;20131;-70
2023/09/23 14:42:31;;;;;;;6.80;3.20;;;;;;;16.84;85.39;101471.00;10469089;28;20137;-71
2023/09/23 14:47:52;;;;;;;6.43;3.10;;;;;;;16.69;88.87;101482.13;10469294;28;20140;-70
2023/09/23 14:53:15;;;;;;;4.95;3.80;;;;;;;16.51;89.64;101498.63;10464743;28;20714;-71
2023/09/23 14:58:37;;;;;;;7.18;4.13;;;;;;;16.41;93.01;101481.59;10475056;28;20052;-70
2023/09/23 15:03:59;;;;;;;5.82;4.28;;;;;;;16.44;94.48;101491.94;10457137;28;20518;-70
2023/09/23 15:09:22;;;;;;;5.97;4.45;;;;;;;16.61;93.49;101484.22;10478757;28;20377;-69
2023/09/23 15:14:43;;;;;;;6.65;4.55;;;;;;;16.68;94.32;101496.09;10479720;28;20044;-69
2023/09/23 15:20:11;;;;;;;4.85;3.50;;;;;;;16.72;91.52;101508.13;10476011;28;20827;-69
2023/09/23 15:25:33;;;;;;;5.57;2.40;;;;;;;16.75;90.42;101508.00;10468857;28;20052;-70
2023/09/23 15:30:56;;;;;;;2.53;1.10;;;;;;;16.72;86.71;101515.13;10474195;28;20423;-70
2023/09/23 15:36:18;;;;;;;2.75;1.00;;;;;;;16.72;86.78;101529.03;10479685;28;20059;-70
2023/09/23 15:41:52;;;;;;;1.85;0.98;;;;;;;16.92;87.77;101526.38;10472343;28;20391;-70
2023/09/23 15:47:18;;;;;;;2.03;1.25;;;;;;;16.99;88.67;101537.44;10481437;28;20388;-70
2023/09/23 15:52:42;;;;;;;6.80;2.50;;;;;;;16.89;89.85;101551.81;10469742;28;20045;-69
2023/09/23 15:58:04;;;;;;;4.60;2.90;;;;;;;16.84;90.11;101557.25;10464064;28;20434;-70
2023/09/23 16:03:25;;;;;;;6.70;3.10;;;;;;;17.01;91.03;101570.41;10487438;28;20049;-70
2023/09/23 16:08:47;;;;;;;5.65;3.10;;;;;;;17.00;89.99;101571.34;10486136;28;20047;-70
2023/09/23 16:14:10;;;;;;;4.05;3.13;;;;;;;16.91;90.95;101579.59;10478946;28;20051;-68
2023/09/23 16:19:33;;;;;;;6.47;3.00;;;;;;;16.91;91.45;101571.75;10478348;28;20083;-69
2023/09/23 16:24:57;;;;;;;4.90;3.00;;;;;;;16.82;90.90;101582.63;10479509;28;20055;-70
2023/09/23 16:30:19;;;;;;;5.72;2.70;;;;;;;16.78;91.51;101599.34;10473959;28;20041;-69
2023/09/23 16:35:40;;;;;;;4.70;2.60;;;;;;;16.73;90.74;101603.94;10471816;28;20716;-69
2023/09/23 16:41:02;;;;;;;4.78;2.70;;;;;;;16.67;91.61;101612.03;10472483;28;20072;-68
2023/09/23 16:46:24;;;;;;;4.78;2.45;;;;;;;16.65;92.41;101628.69;10475817;28;20140;-68
2023/09/23 16:51:47;;;;;;;4.50;2.70;;;;;;;16.63;91.86;101636.59;10475828;28;20064;-70
2023/09/23 16:57:10;;;;;;;2.13;1.92;;;;;;;16.58;92.21;101646.41;10472418;28;20052;-69
2023/09/23 17:02:31;;;;;;;6.47;2.42;;;;;;;16.52;92.48;101657.09;10484483;28;20384;-69
2023/09/23 17:07:54;;;;;;;6.50;2.90;;;;;;;16.52;92.94;101669.34;10464514;28;20139;-70
2023/09/23 17:13:15;;;;;;;4.75;2.20;;;;;;;16.49;93.69;101662.47;10461652;28;20037;-69
2023/09/23 17:18:37;;;;;;;3.60;2.40;;;;;;;16.43;93.28;101667.88;10482159;28;20055;-69
2023/09/23 17:23:59;;;;;;;6.88;3.03;;;;;;;16.44;93.35;101677.44;10478152;28;20140;-70
2023/09/23 17:29:21;;;;;;;6.15;2.90;;;;;;;16.44;93.10;101680.06;10485341;28;20103;-69
2023/09/23 17:34:44;;;;;;;9.30;4.70;;;;;;;16.33;94.20;101687.47;10481302;28;20531;-69
2023/09/23 17:40:06;;;;;;;7.70;3.95;;;;;;;16.33;94.30;101697.94;10473859;28;20044;-69
2023/09/23 17:45:28;;;;;;;8.80;5.28;;;;;;;16.27;94.24;101708.59;10455221;28;20502;-69
2023/09/23 17:50:54;;;;;;;27.63;16.17;;;;;;;16.15;95.21;101713.47;10462375;28;20468;-69
2023/09/23 17:56:16;;;;;;;6.50;4.03;;;;;;;16.13;94.47;101734.41;10477679;28;20066;-69
2023/09/23 18:01:38;;;;;;;7.60;4.40;;;;;;;16.11;95.56;101738.84;10467430;28;20556;-69
2023/09/23 18:07:00;;;;;;;6.97;4.57;;;;;;;16.07;95.82;101747.69;10470128;28;20067;-69
2023/09/23 18:12:21;;;;;;;5.28;4.60;;;;;;;16.01;96.51;101759.22;10464128;28;20114;-69
2023/09/23 18:17:43;;;;;;;6.78;4.00;;;;;;;15.97;95.92;101762.84;10464289;28;20056;-69
2023/09/23 18:23:05;;;;;;;7.57;4.38;;;;;;;15.88;96.42;101772.78;10478434;28;20052;-69
2023/09/23 18:28:27;;;;;;;6.55;4.82;;;;;;;15.79;96.61;101775.72;10464296;28;20094;-69
2023/09/23 18:33:49;;;;;;;6.40;4.55;;;;;;;15.81;96.95;101792.19;10473415;28;20045;-69
2023/09/23 18:39:12;;;;;;;4.70;4.20;;;;;;;15.77;97.40;101804.50;10471745;28;20048;-69
2023/09/23 18:44:33;;;;;;;5.63;4.57;;;;;;;15.78;97.41;101807.97;10476481;28;20063;-69
2023/09/23 18:49:55;;;;;;;7.35;5.32;;;;;;;15.77;98.61;101825.38;10480339;28;20052;-69
2023/09/23 18:55:17;;;;;;;12.88;5.22;;;;;;;15.68;99.40;101827.44;10473412;28;20384;-69
2023/09/23 19:00:39;;;;;;;6.47;4.68;;;;;;;15.66;98.78;101844.91;10479986;28;20044;-69
2023/09/23 19:06:01;;;;;;;8.30;4.82;;;;;;;15.61;98.95;101852.94;10479830;28;20060;-69
2023/09/23 19:11:23;;;;;;;8.68;4.50;;;;;;;15.57;98.67;101855.66;10479629;28;20041;-69
2023/09/23 19:16:45;;;;;;;5.72;4.90;;;;;;;15.53;98.77;101870.59;10466657;28;20056;-69
2023/09/23 19:22:08;;;;;;;5.82;4.68;;;;;;;15.43;98.30;101878.78;10479082;28;20386;-69
2023/09/23 19:27:35;;;;;;;4.88;3.83;;;;;;;15.37;98.56;101876.31;10477613;28;20102;-69
2023/09/23 19:32:57;;;;;;;4.65;3.50;;;;;;;15.31;97.17;101886.97;10484993;28;20435;-69
2023/09/23 19:38:18;;;;;;;6.20;3.10;;;;;;;15.24;97.87;101909.78;10472474;28;20076;-69
2023/09/23 19:43:40;;;;;;;4.68;2.75;;;;;;;15.18;97.57;101909.13;10477940;28;20437;-69
2023/09/23 19:49:02;;;;;;;6.20;2.95;;;;;;;15.11;98.27;101919.75;10464194;28;20040;-69
2023/09/23 19:54:25;;;;;;;5.88;2.42;;;;;;;15.08;97.45;101934.63;10477028;28;20044;-69
2023/09/23 19:59:46;;;;;;;3.38;2.50;;;;;;;15.03;97.94;101942.59;10480162;28;20827;-69
2023/09/23 20:05:10;;;;;;;3.10;2.58;;;;;;;14.97;98.04;101948.00;10466247;28;20154;-69
2023/09/23 20:10:34;;;;;;;2.35;2.13;;;;;;;14.90;97.71;101948.22;10464015;28;20048;-69
2023/09/23 20:15:57;;;;;;;3.95;2.35;;;;;;;14.85;97.25;101964.00;10473449;28;20715;-69
2023/09/23 20:21:19;;;;;;;4.07;2.20;;;;;;;14.83;97.56;101981.41;10474020;28;20055;-70
2023/09/23 20:26:40;;;;;;;4.45;2.20;;;;;;;14.75;97.73;101966.91;10468771;28;20060;-68
2023/09/23 20:32:02;;;;;;;3.55;2.55;;;;;;;14.68;98.63;101979.28;10475480;28;20059;-69
2023/09/23 20:37:24;;;;;;;4.10;2.10;;;;;;;14.62;98.71;101987.25;10471852;28;20050;-69
2023/09/23 20:42:46;;;;;;;2.55;2.20;;;;;;;14.57;98.74;101996.09;10467062;28;20135;-68
2023/09/23 20:48:08;;;;;;;3.90;2.47;;;;;;;14.59;98.71;102002.13;10495898;28;20120;-69
2023/09/23 20:53:34;;;;;;;4.65;2.25;;;;;;;14.56;99.03;102005.66;10469061;28;20106;-69
2023/09/23 20:58:57;;;;;;;3.17;2.50;;;;;;;14.51;99.10;102009.28;10481696;28;20048;-69
2023/09/23 21:04:18;;;;;;;5.80;2.47;;;;;;;14.52;99.14;102024.03;10490913;28;20048;-69
2023/09/23 21:09:41;;;;;;;2.58;2.08;;;;;;;14.50;99.43;102020.59;10512974;28;20049;-68
2023/09/23 21:15:03;;;;;;;3.70;2.03;;;;;;;14.39;98.27;102036.53;10483252;28;20060;-68
2023/09/23 21:20:25;;;;;;;6.80;2.50;;;;;;;14.36;99.52;102041.78;10477685;28;20056;-70
2023/09/23 21:25:52;;;;;;;3.35;2.00;;;;;;;14.28;98.63;102048.09;10464509;28;20469;-68
2023/09/23 21:31:15;;;;;;;3.53;2.35;;;;;;;14.21;98.81;102056.94;10464877;28;20040;-68
2023/09/23 21:36:39;;;;;;;2.40;2.10;;;;;;;14.19;98.38;102070.00;10471090;28;20094;-69
2023/09/23 21:42:01;;;;;;;5.65;2.45;;;;;;;14.13;97.66;102091.84;10469561;28;20048;-69
2023/09/23 21:47:22;;;;;;;3.97;2.90;;;;;;;14.11;99.76;102093.63;10472965;28;20052;-68
2023/09/23 21:52:44;;;;;;;5.25;3.03;;;;;;;14.14;100.00;102105.69;10466349;28;20172;-68
2023/09/23 21:58:06;;;;;;;5.18;2.70;;;;;;;14.17;99.96;102099.56;10477242;28;20518;-68
2023/09/23 22:03:30;;;;;;;4.57;3.13;;;;;;;14.16;100.00;102111.72;10469388;28;20279;-69
2023/09/23 22:08:53;;;;;;;3.33;2.60;;;;;;;14.13;100.00;102103.97;10473314;28;20143;-68
2023/09/23 22:14:15;;;;;;;6.55;2.85;;;;;;;14.16;100.00;102103.91;10463780;28;20044;-68
2023/09/23 22:19:37;;;;;;;5.25;2.85;;;;;;;14.19;100.00;102106.44;10467564;28;20056;-68
2023/09/23 22:24:59;;;;;;;6.53;2.92;;;;;;;14.18;100.00;102103.84;10471494;28;20496;-68
2023/09/23 22:30:25;;;;;;;6.25;2.83;;;;;;;14.13;100.00;102112.66;10469572;28;20040;-68
2023/09/23 22:35:47;;;;;;;3.80;2.92;;;;;;;14.14;100.00;102114.34;10466531;28;20052;-68
2023/09/23 22:41:09;;;;;;;5.40;2.88;;;;;;;14.09;99.97;102115.34;10464599;28;20037;-68
2023/09/23 22:46:31;;;;;;;8.13;2.80;;;;;;;14.03;100.00;102121.56;10449906;28;20056;-68
2023/09/23 22:51:53;;;;;;;4.93;2.80;;;;;;;13.97;100.00;102126.06;10464650;28;20048;-68
2023/09/23 22:57:15;;;;;;;3.10;2.70;;;;;;;13.97;100.00;102126.06;10461455;28;20049;-67
2023/09/23 23:02:37;;;;;;;4.07;2.78;;;;;;;13.91;100.00;102131.41;10469812;28;20055;-67
2023/09/23 23:08:01;;;;;;;7.07;3.10;;;;;;;13.91;100.00;102141.81;10459462;28;20087;-67
2023/09/23 23:13:22;;;;;;;4.00;3.08;;;;;;;13.88;100.00;102141.91;10470263;28;20489;-67
2023/09/23 23:18:44;;;;;;;4.38;2.63;;;;;;;13.85;100.00;102163.63;10486334;22;20056;-68
2023/09/23 23:24:06;;;;;;;6.50;3.40;;;;;;;13.83;100.00;102149.78;10432084;28;20076;-68
2023/09/23 23:29:28;;;;;;;6.03;3.78;;;;;;;13.75;100.00;102158.66;10425985;28;20050;-68
2023/09/23 23:34:51;;;;;;;6.90;3.28;;;;;;;13.69;100.00;102169.19;10418024;28;20053;-68
2023/09/23 23:40:13;;;;;;;4.93;3.42;;;;;;;13.65;100.00;102175.34;10441817;28;20099;-68
2023/09/23 23:45:34;;;;;;;5.82;3.78;;;;;;;13.61;100.00;102178.88;10406780;28;20056;-68
2023/09/23 23:51:09;;;;;;;4.80;3.40;;;;;;;13.60;100.00;102190.19;10427548;28;20049;-68
2023/09/23 23:56:31;;;;;;;9.85;3.30;;;;;;;13.60;100.00;102192.78;10443285;28;20543;-68
